Elizabethtown, North Carolina
Current Conditions -  °F | °C
As of 4:55 AM on Monday 22 Dec 2014 (Local Time) from KEYF Reporting Station
Moderate Rain Moderate Rain  
Wind Chill: 41°   Ceiling: 500
Heat Index: 41°   Visibility: 3mi
Dew Point: 41°   Wind: 3mph
Humidity: 100%   Direction: 20°NNE
Pressure: 30.08"   Gusts: NA
Location:  34.63°N, 78.61°W
Report Text: KEYF 220955Z AUTO 02003KT 3SM RA OVC005 05/05 A3008 RMK AO2 P0005 T00500050
Loading
Personal Weather Stations






























Interactive Weather Map New forecast layout! Learn more

10-Day Weather Forecast

Advertisements
Track Severe Weather on mobile